createdAt,value
2022-11-04T00:00:55.319Z,72.17
2022-11-04T00:01:55.277Z,71.83
2022-11-04T00:02:55.196Z,71.83
2022-11-04T00:03:55.179Z,71.73
2022-11-04T00:04:55.167Z,71.22
2022-11-04T00:05:55.177Z,71.01
2022-11-04T00:06:55.140Z,70.81
2022-11-04T00:07:55.133Z,70.61
2022-11-04T00:08:55.111Z,70.40
2022-11-04T00:09:58.123Z,70.40
2022-11-04T00:10:58.089Z,69.89
2022-11-04T00:11:55.089Z,69.69
2022-11-04T00:12:55.079Z,69.79
2022-11-04T00:13:55.039Z,69.38
2022-11-04T00:14:55.032Z,69.18
2022-11-04T00:15:55.001Z,68.87
2022-11-04T00:16:54.993Z,68.66
2022-11-04T00:17:55.012Z,68.46
2022-11-04T00:18:54.974Z,68.57
2022-11-04T00:19:54.950Z,68.57
2022-11-04T00:20:54.941Z,68.87
2022-11-04T00:21:54.922Z,68.77
2022-11-04T00:22:54.941Z,68.77
2022-11-04T00:23:54.902Z,68.46
2022-11-04T00:24:54.884Z,68.36
2022-11-04T00:25:54.862Z,68.66
2022-11-04T00:26:54.866Z,68.46
2022-11-04T00:27:54.884Z,67.85
2022-11-04T00:28:54.825Z,67.54
2022-11-04T00:29:57.828Z,66.72
2022-11-04T00:30:57.826Z,65.30
2022-11-04T00:31:54.782Z,64.07
2022-11-04T00:32:54.766Z,62.63
2022-11-04T00:33:54.786Z,61.51
2022-11-04T00:34:54.764Z,60.49
2022-11-04T00:35:54.724Z,59.57
2022-11-04T00:36:54.716Z,58.65
2022-11-04T00:37:54.696Z,57.93
2022-11-04T00:38:54.690Z,57.63
2022-11-04T00:39:54.698Z,57.04
2022-11-04T00:40:54.658Z,55.92
2022-11-04T00:41:54.637Z,55.41
2022-11-04T00:42:54.628Z,54.90
2022-11-04T00:43:54.610Z,54.18
2022-11-04T00:44:54.649Z,53.57
2022-11-04T00:45:54.589Z,53.16
2022-11-04T00:46:54.571Z,52.65
2022-11-04T00:47:54.550Z,52.24
2022-11-04T00:48:54.548Z,51.83
2022-11-04T00:49:57.561Z,51.42
2022-11-04T00:50:57.551Z,51.32
2022-11-04T00:51:54.494Z,50.81
2022-11-04T00:52:54.481Z,50.60
2022-11-04T00:53:54.463Z,50.40
2022-11-04T00:54:54.452Z,50.30
2022-11-04T00:55:54.493Z,49.99
2022-11-04T00:56:54.422Z,49.58
2022-11-04T00:57:54.404Z,49.48
2022-11-04T00:58:54.400Z,49.27
2022-11-04T00:59:54.374Z,49.07
2022-11-04T01:00:54.391Z,49.07
2022-11-04T01:01:54.561Z,48.86
2022-11-04T01:02:54.334Z,48.76
2022-11-04T01:03:54.325Z,48.56
2022-11-04T01:04:54.317Z,48.56
2022-11-04T01:05:54.294Z,48.56
2022-11-04T01:06:54.276Z,48.35
2022-11-04T01:07:54.296Z,48.35
2022-11-04T01:08:54.246Z,48.15
2022-11-04T01:09:57.227Z,47.94
2022-11-04T01:10:57.238Z,48.05
2022-11-04T01:11:54.266Z,47.74
2022-11-04T01:12:54.188Z,47.74
2022-11-04T01:13:54.169Z,47.64
2022-11-04T01:14:54.171Z,47.64
2022-11-04T01:15:54.140Z,47.53
2022-11-04T01:16:54.128Z,47.64
2022-11-04T01:17:54.163Z,47.74
2022-11-04T01:18:54.100Z,47.33
2022-11-04T01:19:54.089Z,47.23
2022-11-04T01:20:54.079Z,47.33
2022-11-04T01:21:54.050Z,47.13
2022-11-04T01:22:54.041Z,46.92
2022-11-04T01:23:54.085Z,47.03
2022-11-04T01:24:54.012Z,47.03
2022-11-04T01:25:53.998Z,47.13
2022-11-04T01:27:01.806Z,47.23
2022-11-04T01:27:54.397Z,47.13
2022-11-04T01:28:54.067Z,47.03
2022-11-04T01:29:57.113Z,47.13
2022-11-04T01:30:57.045Z,47.23
2022-11-04T01:31:53.943Z,47.23
2022-11-04T01:32:53.942Z,47.23
2022-11-04T01:33:53.964Z,47.33
2022-11-04T01:34:53.914Z,47.44
2022-11-04T01:35:54.032Z,47.94
2022-11-04T01:36:53.955Z,48.15
2022-11-04T01:37:53.874Z,48.15
2022-11-04T01:38:53.855Z,48.35
2022-11-04T01:39:53.825Z,48.25
2022-11-04T01:40:53.817Z,48.56
2022-11-04T01:41:53.877Z,48.76
2022-11-04T01:42:53.837Z,48.66
2022-11-04T01:43:53.787Z,48.86
2022-11-04T01:44:53.880Z,49.27
2022-11-04T01:45:53.825Z,49.17
2022-11-04T01:46:53.848Z,49.58
2022-11-04T01:47:53.735Z,49.48
2022-11-04T01:48:53.707Z,49.68
2022-11-04T01:49:56.717Z,49.58
2022-11-04T01:50:56.676Z,49.58
2022-11-04T01:51:53.778Z,49.38
2022-11-04T01:52:53.720Z,49.68
2022-11-04T01:53:53.690Z,49.79
2022-11-04T01:54:53.670Z,49.89
2022-11-04T01:55:53.610Z,49.79
2022-11-04T01:56:53.567Z,49.68
2022-11-04T01:57:53.591Z,49.79
2022-11-04T01:58:53.560Z,49.89
2022-11-04T01:59:53.641Z,49.99
2022-11-04T02:00:53.625Z,49.99
2022-11-04T02:01:53.605Z,50.40
2022-11-04T02:02:53.543Z,50.71
2022-11-04T02:03:53.472Z,50.71
2022-11-04T02:04:53.473Z,50.60
2022-11-04T02:05:53.462Z,50.71
2022-11-04T02:06:53.473Z,51.12
2022-11-04T02:07:53.460Z,50.81
2022-11-04T02:08:53.464Z,50.91
2022-11-04T02:09:56.512Z,50.81
2022-11-04T02:10:56.483Z,50.91
2022-11-04T02:11:53.419Z,50.81
2022-11-04T02:12:53.381Z,51.01
2022-11-04T02:13:53.355Z,50.81
2022-11-04T02:14:53.426Z,50.60
2022-11-04T02:15:53.395Z,50.50
2022-11-04T02:16:53.385Z,50.40
2022-11-04T02:17:53.346Z,50.40
2022-11-04T02:18:53.347Z,50.20
2022-11-04T02:19:53.287Z,50.50
2022-11-04T02:20:53.246Z,50.30
2022-11-04T02:21:53.238Z,50.40
2022-11-04T02:22:53.252Z,50.30
2022-11-04T02:23:53.317Z,50.40
2022-11-04T02:24:53.218Z,50.60
2022-11-04T02:25:53.189Z,50.60
2022-11-04T02:26:53.279Z,50.71
2022-11-04T02:27:53.181Z,50.71
2022-11-04T02:28:53.214Z,50.40
2022-11-04T02:29:56.118Z,50.71
2022-11-04T02:30:57.115Z,50.30
2022-11-04T02:31:53.162Z,50.40
2022-11-04T02:32:53.069Z,50.30
2022-11-04T02:33:53.109Z,50.30
2022-11-04T02:34:53.053Z,50.20
2022-11-04T02:35:53.052Z,50.40
2022-11-04T02:36:53.009Z,50.40
2022-11-04T02:38:53.014Z,50.09
2022-11-04T02:39:52.952Z,49.99
2022-11-04T02:40:53.004Z,49.99
2022-11-04T02:41:52.959Z,50.09
2022-11-04T02:42:52.924Z,49.89
2022-11-04T02:43:52.933Z,49.99
2022-11-04T02:44:53.015Z,49.89
2022-11-04T02:45:52.848Z,49.89
2022-11-04T02:46:52.929Z,49.89
2022-11-04T02:47:52.904Z,49.99
2022-11-04T02:48:52.835Z,49.99
2022-11-04T02:49:55.896Z,49.89
2022-11-04T02:50:55.806Z,49.87
2022-11-04T02:51:52.865Z,49.48
2022-11-04T02:52:52.758Z,49.58
2022-11-04T02:53:52.768Z,49.99
2022-11-04T02:54:52.811Z,49.79
2022-11-04T02:55:52.791Z,49.89
2022-11-04T02:56:52.729Z,49.68
2022-11-04T02:57:52.709Z,49.76
2022-11-04T02:58:52.732Z,49.87
2022-11-04T02:59:52.687Z,49.96
2022-11-04T03:00:52.711Z,49.96
2022-11-04T03:01:52.925Z,50.27
2022-11-04T03:02:52.669Z,50.17
2022-11-04T03:03:52.632Z,50.37
2022-11-04T03:04:52.680Z,50.48
2022-11-04T03:05:52.581Z,50.48
2022-11-04T03:06:52.585Z,50.48
2022-11-04T03:07:52.631Z,50.78
2022-11-04T03:08:52.540Z,50.78
2022-11-04T03:09:55.587Z,50.78
2022-11-04T03:10:55.549Z,50.78
2022-11-04T03:11:52.512Z,51.70
2022-11-04T03:12:52.598Z,52.01
2022-11-04T03:13:52.483Z,51.91
2022-11-04T03:14:52.555Z,52.42
2022-11-04T03:15:52.494Z,52.62
2022-11-04T03:16:52.469Z,53.13
2022-11-04T03:17:52.447Z,53.95
2022-11-04T03:18:52.416Z,54.26
2022-11-04T03:19:52.427Z,54.57
2022-11-04T03:20:52.439Z,54.46
2022-11-04T03:21:52.376Z,55.08
2022-11-04T03:22:52.376Z,55.99
2022-11-04T03:23:52.449Z,57.53
2022-11-04T03:24:52.378Z,58.45
2022-11-04T03:25:52.347Z,59.47
2022-11-04T03:26:52.455Z,60.28
2022-11-04T03:27:52.270Z,61.92
2022-11-04T03:28:52.258Z,64.68
2022-11-04T03:29:55.259Z,65.60
2022-11-04T03:30:55.299Z,66.52
2022-11-04T03:31:52.218Z,66.42
2022-11-04T03:32:52.240Z,66.31
2022-11-04T03:33:52.189Z,66.72
2022-11-04T03:34:52.286Z,69.07
2022-11-04T03:35:52.181Z,72.04
2022-11-04T03:36:52.179Z,74.08
2022-11-04T03:37:52.160Z,75.62
2022-11-04T03:38:52.163Z,75.71
2022-11-04T03:39:52.091Z,77.04
2022-11-04T03:40:52.073Z,77.76
2022-11-04T03:41:52.180Z,78.07
2022-11-04T03:42:52.103Z,79.09
2022-11-04T03:43:52.113Z,80.52
2022-11-04T03:44:52.036Z,80.83
2022-11-04T03:45:52.009Z,82.29
2022-11-04T03:46:52.050Z,83.83
2022-11-04T03:47:52.036Z,84.34
2022-11-04T03:48:51.983Z,84.14
2022-11-04T03:49:54.952Z,84.24
2022-11-04T03:50:55.086Z,84.34
2022-11-04T03:51:51.915Z,84.95
2022-11-04T03:52:51.955Z,84.44
2022-11-04T03:53:51.924Z,85.16
2022-11-04T03:54:51.918Z,84.75
2022-11-04T03:55:51.867Z,85.57
2022-11-04T03:56:51.858Z,85.16
2022-11-04T03:57:51.855Z,85.26
2022-11-04T03:58:51.887Z,85.88
2022-11-04T03:59:51.819Z,85.26
2022-11-04T04:00:51.876Z,85.16
2022-11-04T04:01:51.863Z,85.67
2022-11-04T04:02:51.768Z,85.06
2022-11-04T04:03:51.770Z,84.95
2022-11-04T04:04:51.759Z,85.47
2022-11-04T04:05:51.767Z,84.85
2022-11-04T04:06:51.720Z,84.75
2022-11-04T04:07:51.752Z,84.99
2022-11-04T04:08:51.719Z,84.79
2022-11-04T04:09:54.740Z,84.48
2022-11-04T04:10:54.693Z,84.17
2022-11-04T04:11:51.667Z,84.89
2022-11-04T04:12:51.650Z,84.58
2022-11-04T04:13:51.630Z,84.28
2022-11-04T04:14:51.619Z,84.07
2022-11-04T04:15:51.681Z,84.17
2022-11-04T04:16:51.614Z,84.07
2022-11-04T04:17:51.851Z,83.36
2022-11-04T04:18:55.654Z,83.36
2022-11-04T04:19:52.761Z,82.95
2022-11-04T04:20:51.594Z,82.75
2022-11-04T04:21:51.534Z,82.54
2022-11-04T04:22:51.539Z,82.23
2022-11-04T04:23:51.478Z,82.13
2022-11-04T04:24:51.473Z,81.93
2022-11-04T04:25:51.484Z,81.82
2022-11-04T04:26:51.505Z,81.82
2022-11-04T04:27:51.478Z,81.51
2022-11-04T04:28:51.408Z,81.01
2022-11-04T04:29:54.465Z,81.21
2022-11-04T04:31:00.031Z,81.10
2022-11-04T04:31:52.473Z,80.90
2022-11-04T04:32:51.402Z,80.69
2022-11-04T04:33:51.346Z,80.60
2022-11-04T04:34:51.345Z,80.19
2022-11-04T04:35:51.309Z,80.08
2022-11-04T04:36:51.317Z,79.78
2022-11-04T04:37:51.305Z,79.57
2022-11-04T04:38:51.268Z,79.27
2022-11-04T04:39:51.267Z,78.75
2022-11-04T04:40:51.353Z,78.14
2022-11-04T04:41:51.387Z,77.94
2022-11-04T04:42:51.322Z,77.94
2022-11-04T04:43:51.316Z,77.94
2022-11-04T04:44:51.171Z,77.63
2022-11-04T04:45:51.291Z,77.12
2022-11-04T04:46:51.558Z,77.22
2022-11-04T04:47:51.192Z,77.32
2022-11-04T04:48:51.275Z,77.42
2022-11-04T04:49:54.346Z,77.63
2022-11-04T04:50:54.193Z,77.83
2022-11-04T04:51:51.352Z,77.63
2022-11-04T04:52:51.152Z,77.32
2022-11-04T04:53:51.263Z,77.42
2022-11-04T04:54:51.096Z,77.32
2022-11-04T04:55:51.087Z,77.42
2022-11-04T04:56:51.230Z,77.53
2022-11-04T04:57:51.404Z,77.22
2022-11-04T04:58:51.110Z,77.22
2022-11-04T04:59:51.190Z,77.42
2022-11-04T05:00:51.047Z,77.01
2022-11-04T05:01:51.225Z,77.01
2022-11-04T05:02:50.937Z,76.40
2022-11-04T05:03:51.065Z,76.09
2022-11-04T05:04:51.043Z,76.09
2022-11-04T05:05:52.638Z,75.68
2022-11-04T05:06:50.898Z,75.68
2022-11-04T05:07:50.927Z,75.89
2022-11-04T05:08:50.898Z,75.99
2022-11-04T05:09:53.838Z,76.09
2022-11-04T05:10:53.818Z,75.99
2022-11-04T05:11:50.791Z,75.99
2022-11-04T05:12:50.769Z,76.09
2022-11-04T05:13:50.759Z,76.09
2022-11-04T05:14:50.848Z,76.40
2022-11-04T05:15:50.802Z,76.30
2022-11-04T05:16:50.759Z,76.09
2022-11-04T05:17:50.701Z,76.09
2022-11-04T05:18:50.731Z,75.89
2022-11-04T05:19:50.719Z,75.31
2022-11-04T05:20:50.706Z,74.90
2022-11-04T05:21:50.662Z,74.39
2022-11-04T05:22:50.641Z,74.39
2022-11-04T05:23:50.664Z,74.19
2022-11-04T05:24:50.655Z,74.19
2022-11-04T05:25:50.633Z,74.60
2022-11-04T05:26:50.642Z,74.39
2022-11-04T05:27:50.616Z,74.39
2022-11-04T05:28:50.553Z,74.08
2022-11-04T05:29:53.535Z,74.02
2022-11-04T05:30:53.564Z,73.61
2022-11-04T05:31:50.506Z,73.20
2022-11-04T05:32:50.525Z,72.69
2022-11-04T05:33:50.571Z,72.58
2022-11-04T05:34:50.496Z,71.86
2022-11-04T05:35:50.468Z,71.25
2022-11-04T05:36:50.465Z,70.74
2022-11-04T05:37:50.426Z,70.43
2022-11-04T05:38:50.447Z,69.95
2022-11-04T05:39:50.425Z,69.75
2022-11-04T05:40:50.438Z,69.75
2022-11-04T05:41:50.467Z,69.24
2022-11-04T05:42:50.398Z,69.03
2022-11-04T05:43:50.408Z,68.62
2022-11-04T05:44:50.328Z,68.32
2022-11-04T05:45:50.345Z,68.01
2022-11-04T05:46:50.328Z,68.01
2022-11-04T05:47:50.380Z,67.90
2022-11-04T05:48:50.329Z,67.60
2022-11-04T05:49:53.288Z,67.60
2022-11-04T05:50:53.277Z,68.01
2022-11-04T05:51:50.268Z,68.01
2022-11-04T05:52:50.220Z,68.01
2022-11-04T05:53:50.241Z,67.70
2022-11-04T05:54:50.220Z,67.80
2022-11-04T05:55:50.248Z,67.70
2022-11-04T05:56:50.203Z,67.80
2022-11-04T05:57:50.163Z,67.70
2022-11-04T05:58:50.215Z,67.80
2022-11-04T05:59:50.184Z,68.11
2022-11-04T06:00:50.173Z,68.52
2022-11-04T06:01:50.298Z,69.13
2022-11-04T06:02:50.176Z,69.13
2022-11-04T06:03:50.082Z,69.54
2022-11-04T06:04:50.144Z,69.75
2022-11-04T06:05:50.066Z,69.85
2022-11-04T06:06:50.067Z,70.47
2022-11-04T06:07:50.025Z,70.26
2022-11-04T06:08:50.005Z,70.47
2022-11-04T06:09:53.057Z,70.57
2022-11-04T06:10:52.992Z,70.77
2022-11-04T06:11:49.987Z,70.67
2022-11-04T06:12:49.948Z,70.77
2022-11-04T06:13:49.936Z,71.18
2022-11-04T06:14:49.945Z,71.49
2022-11-04T06:15:49.960Z,71.69
2022-11-04T06:16:49.902Z,71.49
2022-11-04T06:17:49.916Z,71.80
2022-11-04T06:18:49.909Z,71.49
2022-11-04T06:19:49.883Z,71.49
2022-11-04T06:20:49.879Z,71.39
2022-11-04T06:21:49.823Z,71.59
2022-11-04T06:22:49.822Z,71.28
2022-11-04T06:23:49.811Z,70.98
2022-11-04T06:24:49.792Z,70.87
2022-11-04T06:25:49.820Z,70.87
2022-11-04T06:26:49.758Z,70.57
2022-11-04T06:27:49.747Z,71.08
2022-11-04T06:28:49.732Z,70.87
2022-11-04T06:29:52.728Z,70.81
2022-11-04T06:30:52.792Z,70.16
2022-11-04T06:31:49.729Z,69.85
2022-11-04T06:32:49.724Z,69.44
2022-11-04T06:33:49.684Z,68.93
2022-11-04T06:34:49.654Z,68.62
2022-11-04T06:35:49.654Z,68.52
2022-11-04T06:36:49.732Z,68.11
2022-11-04T06:37:49.603Z,67.90
2022-11-04T06:38:49.615Z,67.90
2022-11-04T06:39:49.603Z,68.01
2022-11-04T06:40:49.571Z,67.90
2022-11-04T06:41:51.649Z,68.21
2022-11-04T06:42:49.586Z,68.52
2022-11-04T06:43:49.529Z,68.62
2022-11-04T06:44:49.507Z,69.03
2022-11-04T06:45:49.517Z,69.75
2022-11-04T06:46:49.505Z,70.06
2022-11-04T06:47:49.479Z,70.36
2022-11-04T06:48:49.477Z,70.87
2022-11-04T06:49:52.444Z,70.98
2022-11-04T06:50:52.459Z,71.18
2022-11-04T06:51:49.437Z,71.39
2022-11-04T06:52:49.408Z,71.59
2022-11-04T06:53:49.419Z,100.00
2022-11-04T06:54:49.427Z,72.11
2022-11-04T06:55:49.380Z,72.20
2022-11-04T06:56:49.349Z,72.20
2022-11-04T06:57:49.329Z,72.41
2022-11-04T06:58:49.330Z,72.20
2022-11-04T06:59:49.331Z,72.31
2022-11-04T07:00:49.325Z,72.31
2022-11-04T07:01:49.441Z,72.72
2022-11-04T07:02:49.320Z,72.41
2022-11-04T07:03:49.243Z,72.20
2022-11-04T07:04:49.266Z,72.00
2022-11-04T07:05:49.215Z,72.00
2022-11-04T07:06:49.207Z,71.69
2022-11-04T07:07:49.193Z,71.59
2022-11-04T07:08:49.184Z,71.28
2022-11-04T07:09:52.202Z,70.98
2022-11-04T07:10:52.156Z,70.77
2022-11-04T07:11:49.136Z,70.53
2022-11-04T07:12:49.120Z,71.04
2022-11-04T07:13:49.115Z,71.56
2022-11-04T07:14:49.125Z,71.66
2022-11-04T07:15:49.093Z,71.86
2022-11-04T07:16:49.087Z,72.48
2022-11-04T07:17:49.085Z,72.86
2022-11-04T07:18:49.036Z,73.47
2022-11-04T07:19:49.064Z,73.57
2022-11-04T07:20:49.062Z,73.98
2022-11-04T07:21:49.048Z,74.19
2022-11-04T07:22:49.048Z,74.49
2022-11-04T07:23:49.010Z,75.42
2022-11-04T07:24:48.979Z,75.82
2022-11-04T07:25:48.937Z,76.64
2022-11-04T07:26:48.975Z,76.54
2022-11-04T07:28:01.131Z,77.15
2022-11-04T07:28:48.892Z,78.28
2022-11-04T07:29:51.893Z,78.69
2022-11-04T07:30:51.913Z,78.49
2022-11-04T07:31:48.862Z,78.49
2022-11-04T07:32:48.850Z,79.00
2022-11-04T07:33:48.882Z,78.89
2022-11-04T07:34:48.824Z,78.79
2022-11-04T07:35:48.802Z,79.82
2022-11-04T07:36:48.792Z,79.50
2022-11-04T07:37:48.783Z,79.00
2022-11-04T07:38:48.775Z,78.89
2022-11-04T07:39:48.808Z,78.89
2022-11-04T07:40:48.804Z,79.00
2022-11-04T07:41:48.715Z,79.10
2022-11-04T07:42:48.706Z,79.20
2022-11-04T07:43:48.688Z,79.00
2022-11-04T07:44:48.696Z,78.59
2022-11-04T07:45:48.715Z,79.10
2022-11-04T07:46:48.648Z,79.00
2022-11-04T07:47:48.636Z,79.30
2022-11-04T07:48:48.887Z,79.50
2022-11-04T07:49:51.788Z,79.41
2022-11-04T07:50:51.798Z,79.20
2022-11-04T07:51:48.646Z,78.89
2022-11-04T07:52:48.798Z,78.38
2022-11-04T07:53:48.577Z,78.08
2022-11-04T07:54:48.558Z,77.97
2022-11-04T07:55:48.519Z,78.08
2022-11-04T07:56:48.523Z,78.08
2022-11-04T07:57:48.566Z,77.87
2022-11-04T07:58:48.519Z,77.67
2022-11-04T07:59:48.461Z,77.36
2022-11-04T08:00:48.480Z,76.95
2022-11-04T08:01:48.533Z,77.05
2022-11-04T08:02:48.480Z,76.95
2022-11-04T08:03:48.431Z,76.75
2022-11-04T08:04:48.426Z,76.64
2022-11-04T08:05:48.415Z,76.13
2022-11-04T08:06:48.363Z,76.03
2022-11-04T08:07:48.375Z,76.03
2022-11-04T08:08:48.506Z,76.13
2022-11-04T08:09:51.362Z,76.54
2022-11-04T08:10:51.354Z,76.20
2022-11-04T08:11:48.310Z,75.99
2022-11-04T08:12:48.293Z,76.09
2022-11-04T08:13:48.283Z,76.91
2022-11-04T08:14:48.285Z,77.01
2022-11-04T08:15:48.272Z,77.53
2022-11-04T08:16:48.274Z,77.83
2022-11-04T08:17:48.224Z,78.34
2022-11-04T08:18:48.206Z,78.04
2022-11-04T08:19:48.203Z,78.14
2022-11-04T08:20:48.263Z,78.34
2022-11-04T08:21:48.162Z,78.75
2022-11-04T08:22:48.249Z,78.55
2022-11-04T08:23:48.323Z,79.06
2022-11-04T08:24:48.137Z,78.86
2022-11-04T08:25:48.107Z,79.06
2022-11-04T08:26:48.151Z,78.55
2022-11-04T08:27:48.127Z,78.75
2022-11-04T08:28:48.665Z,78.75
2022-11-04T08:29:51.068Z,78.65
2022-11-04T08:30:51.075Z,79.27
2022-11-04T08:31:48.050Z,79.33
2022-11-04T08:32:48.019Z,79.53
2022-11-04T08:33:47.992Z,79.64
2022-11-04T08:34:47.990Z,79.74
2022-11-04T08:35:47.960Z,80.32
2022-11-04T08:36:48.014Z,80.83
2022-11-04T08:37:47.931Z,81.44
2022-11-04T08:38:47.952Z,81.24
2022-11-04T08:39:47.950Z,82.42
2022-11-04T08:40:47.914Z,84.47
2022-11-04T08:41:47.873Z,84.57
2022-11-04T08:42:47.921Z,84.77
2022-11-04T08:43:47.844Z,85.35
2022-11-04T08:44:47.843Z,86.47
2022-11-04T08:45:47.814Z,86.88
2022-11-04T08:46:47.804Z,87.59
2022-11-04T08:47:47.783Z,86.63
2022-11-04T08:48:47.846Z,87.55
2022-11-04T08:49:50.765Z,89.28
2022-11-04T08:50:50.789Z,89.18
2022-11-04T08:51:47.734Z,89.69
2022-11-04T08:52:47.714Z,89.59
2022-11-04T08:53:47.787Z,91.74
2022-11-04T08:54:47.685Z,90.92
2022-11-04T08:55:47.699Z,89.69
2022-11-04T08:56:47.656Z,89.28
2022-11-04T08:57:47.667Z,90.61
2022-11-04T08:58:47.628Z,90.55
2022-11-04T08:59:47.647Z,90.25
2022-11-04T09:00:47.628Z,90.25
2022-11-04T09:01:47.624Z,89.53
2022-11-04T09:02:47.648Z,89.79
2022-11-04T09:03:47.640Z,89.08
2022-11-04T09:04:47.584Z,89.28
2022-11-04T09:05:47.565Z,89.25
2022-11-04T09:06:47.571Z,89.25
2022-11-04T09:07:47.533Z,89.34
2022-11-04T09:08:47.497Z,89.96
2022-11-04T09:09:50.541Z,90.16
2022-11-04T09:10:50.526Z,89.65
2022-11-04T09:11:47.491Z,90.06
2022-11-04T09:12:47.443Z,90.77
2022-11-04T09:13:47.429Z,91.49
2022-11-04T09:14:47.430Z,91.08
2022-11-04T09:15:47.412Z,92.41
2022-11-04T09:16:47.472Z,91.08
2022-11-04T09:17:47.402Z,91.18
2022-11-04T09:18:47.371Z,91.28
2022-11-04T09:19:47.353Z,90.77
2022-11-04T09:20:47.337Z,90.67
2022-11-04T09:21:47.316Z,90.88
2022-11-04T09:22:47.347Z,91.63
2022-11-04T09:23:47.295Z,90.71
2022-11-04T09:24:48.737Z,90.71
2022-11-04T09:25:47.305Z,91.02
2022-11-04T09:26:47.269Z,90.31
2022-11-04T09:27:47.236Z,90.92
2022-11-04T09:28:47.245Z,89.59
2022-11-04T09:29:50.226Z,89.49
2022-11-04T09:30:50.257Z,89.18
2022-11-04T09:31:47.177Z,89.18
2022-11-04T09:32:52.399Z,88.73
2022-11-04T09:33:48.198Z,90.16
2022-11-04T09:34:47.159Z,89.86
2022-11-04T09:35:47.129Z,90.47
2022-11-04T09:36:47.157Z,90.22
2022-11-04T09:37:47.123Z,91.14
2022-11-04T09:38:47.091Z,91.55
2022-11-04T09:39:52.727Z,90.94
2022-11-04T09:40:48.071Z,90.94
2022-11-04T09:41:47.110Z,91.14
2022-11-04T09:42:47.035Z,90.73
2022-11-04T09:43:47.022Z,90.53
2022-11-04T09:45:15.083Z,90.89
2022-11-04T09:45:48.012Z,92.77
2022-11-04T09:46:47.113Z,93.79
2022-11-04T09:47:46.960Z,92.57
2022-11-04T09:48:47.017Z,92.16
2022-11-04T09:49:49.934Z,91.85
2022-11-04T09:50:49.950Z,91.75
2022-11-04T09:51:54.180Z,92.26
2022-11-04T09:52:47.897Z,92.46
2022-11-04T09:53:46.886Z,92.97
2022-11-04T09:54:47.602Z,92.87
2022-11-04T09:55:46.862Z,92.67
2022-11-04T09:56:46.835Z,92.26
2022-11-04T09:57:46.867Z,92.97
2022-11-04T09:58:46.856Z,92.57
2022-11-04T09:59:46.818Z,91.75
2022-11-04T10:00:46.862Z,92.87
2022-11-04T10:01:46.918Z,92.57
2022-11-04T10:02:46.768Z,92.57
2022-11-04T10:03:46.747Z,92.36
2022-11-04T10:04:46.789Z,92.36
2022-11-04T10:05:46.727Z,92.57
2022-11-04T10:06:46.718Z,92.16
2022-11-04T10:07:46.737Z,91.69
2022-11-04T10:08:46.690Z,91.69
2022-11-04T10:09:49.690Z,91.49
2022-11-04T10:10:49.664Z,90.88
2022-11-04T10:11:46.687Z,92.35
2022-11-04T10:12:46.630Z,91.53
2022-11-04T10:13:46.610Z,91.02
2022-11-04T10:14:46.600Z,90.92
2022-11-04T10:15:46.601Z,91.22
2022-11-04T10:16:46.641Z,90.00
2022-11-04T10:17:46.652Z,88.67
2022-11-04T10:18:46.553Z,88.37
2022-11-04T10:19:46.520Z,88.57
2022-11-04T10:20:46.528Z,88.26
2022-11-04T10:21:46.501Z,89.59
2022-11-04T10:22:46.504Z,89.79
2022-11-04T10:23:46.473Z,89.49
2022-11-04T10:24:46.455Z,90.00
2022-11-04T10:25:46.458Z,90.00
2022-11-04T10:26:46.493Z,90.36
2022-11-04T10:27:46.425Z,89.86
2022-11-04T10:28:46.428Z,89.65
2022-11-04T10:29:49.400Z,91.28
2022-11-04T10:30:49.415Z,91.89
2022-11-04T10:31:46.381Z,92.26
2022-11-04T10:32:46.389Z,92.16
2022-11-04T10:33:46.353Z,92.67
2022-11-04T10:34:46.337Z,92.67
2022-11-04T10:35:46.306Z,93.07
2022-11-04T10:36:46.287Z,93.28
2022-11-04T10:37:46.432Z,92.87
2022-11-04T10:38:46.287Z,92.77
2022-11-04T10:39:46.268Z,92.72
2022-11-04T10:40:46.258Z,92.42
2022-11-04T10:41:46.248Z,92.83
2022-11-04T10:42:46.225Z,92.99
2022-11-04T10:43:46.230Z,93.29
2022-11-04T10:44:46.204Z,93.50
2022-11-04T10:45:46.200Z,93.86
2022-11-04T10:46:46.171Z,94.47
2022-11-04T10:47:46.142Z,94.68
2022-11-04T10:48:46.189Z,96.10
2022-11-04T10:50:13.895Z,95.34
2022-11-04T10:50:50.140Z,96.36
2022-11-04T10:51:46.101Z,96.15
2022-11-04T10:52:46.092Z,96.26
2022-11-04T10:53:46.055Z,95.70
2022-11-04T10:54:46.087Z,96.22
2022-11-04T10:55:46.054Z,95.20
2022-11-04T10:56:46.076Z,96.42
2022-11-04T10:57:46.016Z,95.97
2022-11-04T10:58:46.004Z,97.19
2022-11-04T10:59:46.015Z,97.08
2022-11-04T11:00:46.148Z,96.73
2022-11-04T11:01:46.005Z,99.07
2022-11-04T11:02:45.935Z,98.16
2022-11-04T11:03:45.926Z,99.22
2022-11-04T11:04:45.916Z,98.91
2022-11-04T11:05:45.886Z,99.99
2022-11-04T11:06:45.910Z,99.32
2022-11-04T11:07:45.868Z,99.77
2022-11-04T11:08:45.869Z,99.37
2022-11-04T11:09:53.484Z,99.01
2022-11-04T11:10:49.837Z,98.60
2022-11-04T11:11:45.849Z,98.80
2022-11-04T11:12:51.122Z,98.34
2022-11-04T11:13:46.800Z,98.03
2022-11-04T11:14:45.790Z,97.69
2022-11-04T11:15:45.757Z,96.77
2022-11-04T11:16:45.780Z,97.94
2022-11-04T11:17:45.732Z,97.84
2022-11-04T11:18:45.729Z,99.52
2022-11-04T11:19:45.826Z,97.29
2022-11-04T11:20:45.701Z,97.65
2022-11-04T11:21:45.705Z,98.56
2022-11-04T11:22:45.677Z,99.53
2022-11-04T11:23:45.663Z,99.99
2022-11-04T11:24:45.678Z,99.99
2022-11-04T11:25:45.632Z,99.78
2022-11-04T11:26:45.603Z,99.53
2022-11-04T11:27:45.597Z,99.99
2022-11-04T11:28:45.571Z,99.84
2022-11-04T11:29:48.594Z,99.99
2022-11-04T11:30:48.566Z,99.99
2022-11-04T11:31:45.641Z,99.43
2022-11-04T11:32:45.526Z,99.99
2022-11-04T11:33:45.517Z,99.99
2022-11-04T11:34:45.516Z,99.99
2022-11-04T11:35:45.467Z,99.99
2022-11-04T11:36:45.469Z,99.99
2022-11-04T11:37:45.449Z,99.99
2022-11-04T11:38:45.458Z,99.99
2022-11-04T11:39:45.479Z,99.99
2022-11-04T11:41:10.439Z,99.52
2022-11-04T11:41:51.942Z,99.99
2022-11-04T11:42:46.379Z,99.93
2022-11-04T11:43:45.370Z,99.52
2022-11-04T11:44:45.341Z,99.68
2022-11-04T11:45:45.354Z,99.99
2022-11-04T11:46:45.320Z,99.99
2022-11-04T11:47:45.312Z,99.99
2022-11-04T11:48:45.310Z,99.99
2022-11-04T11:49:48.332Z,99.99
2022-11-04T11:50:48.291Z,99.99
2022-11-04T11:51:45.256Z,99.99
2022-11-04T11:52:45.241Z,99.99
2022-11-04T11:53:45.243Z,99.99
2022-11-04T11:54:45.225Z,99.99
2022-11-04T11:55:45.224Z,99.99
2022-11-04T11:57:12.032Z,99.99
2022-11-04T11:57:46.664Z,99.99
2022-11-04T12:00:48.606Z,99.99
2022-11-04T12:01:45.208Z,99.99
2022-11-04T12:02:45.256Z,99.99
2022-11-04T12:09:49.009Z,99.99
2022-11-04T12:10:52.320Z,99.99
2022-11-04T12:11:44.969Z,99.99
2022-11-04T12:12:44.961Z,99.99
2022-11-04T12:13:44.980Z,99.99
2022-11-04T12:14:48.871Z,99.99
2022-11-04T12:15:44.909Z,99.99
2022-11-04T12:16:44.911Z,99.99
2022-11-04T12:17:44.894Z,99.99
2022-11-04T12:18:44.923Z,99.99
2022-11-04T12:19:44.872Z,99.99
2022-11-04T12:20:44.851Z,99.99
2022-11-04T12:21:44.843Z,99.99
2022-11-04T12:22:44.854Z,99.99
2022-11-04T12:23:44.813Z,99.99
2022-11-04T12:24:44.793Z,99.99
2022-11-04T12:25:44.775Z,99.99
2022-11-04T12:26:44.753Z,99.99
2022-11-04T12:27:44.765Z,99.99
2022-11-04T12:28:44.744Z,99.99
2022-11-04T12:29:47.796Z,99.99
2022-11-04T12:30:47.730Z,99.99
2022-11-04T12:31:44.688Z,99.99
2022-11-04T12:32:44.700Z,99.99
2022-11-04T12:33:44.752Z,99.99
2022-11-04T12:34:44.648Z,99.99
2022-11-04T12:35:44.638Z,99.99
2022-11-04T12:36:44.650Z,99.99
2022-11-04T12:37:44.628Z,99.99
2022-11-04T12:38:44.639Z,99.99
2022-11-04T12:39:44.660Z,99.99
2022-11-04T12:40:59.287Z,99.99
2022-11-04T12:42:14.817Z,99.99
2022-11-04T12:42:45.540Z,99.99
2022-11-04T12:43:44.531Z,99.99
2022-11-04T12:44:44.511Z,99.99
2022-11-04T12:45:44.533Z,99.99
2022-11-04T12:46:44.502Z,99.99
2022-11-04T12:47:44.461Z,99.99
2022-11-04T12:48:44.472Z,99.99
2022-11-04T12:49:47.502Z,99.99
2022-11-04T12:50:47.442Z,99.99
2022-11-04T12:51:44.413Z,99.99
2022-11-04T12:52:44.437Z,99.99
2022-11-04T12:53:44.393Z,99.99
2022-11-04T12:54:44.375Z,99.99
2022-11-04T12:55:44.402Z,99.99
2022-11-04T12:56:44.407Z,99.13
2022-11-04T12:57:44.346Z,99.99
2022-11-04T12:58:44.327Z,99.99
2022-11-04T12:59:44.316Z,99.99
2022-11-04T13:00:44.345Z,99.99
2022-11-04T13:01:44.456Z,99.99